TAF and METAR

METAR for Yakutsk Airport

UEEE 141500Z 35003MPS CAVOK M33/M36 Q1009 R23L/450155 NOSIG RMK QFE748
Report created 14. des 16:00
wind 6 knots from N (350°) Clear sky Temperature -33° with dewpoint at -36° (Humidity 74.21%) Pressure 1009 hPa 1 mm of dry snow is covering 26% - 50% of runway 23L and friction coefficient is 0.55

TAF for Yakutsk Airport

TAF UEEE 141400Z 1415/1521 35003MPS 5000 -SN NSC TEMPO 1415/1502 0300 SN FG VV003
Report created 14. des 15:00

between 14. des 16:00 - 15. des 22:00

wind 6 knots from N (350°) visibility 5000 meters light snow No significant clouds.

temporarily between 14. des 16:00 - 15. des 03:00

visibility 300 meters snow fog vertical visibility 300 feet
Yakutsk Airport in Russian Federation at 103m

Latest 5 airports